Time;durP1;ratioP1;P1;durP2;ratioP2;P2;SDS_P1;SDS_P2;PMS_P1;PMS_P2;Temp;Humidity;BMP_temperature;BMP_pressure;BME280_temperature;BME280_humidity;BME280_pressure;Samples;Min_cycle;Max_cycle;Signal;HPM_P1;HPM_P2
2022/08/07 00:00:28;;;;;;;3.30;1.70;;;;;;;16.51;63.57;100928.63;106354;1270;97861;-68
2022/08/07 00:03:12;;;;;;;6.50;2.00;;;;;;;16.48;63.90;100930.49;106434;1268;97937;-68
2022/08/07 00:05:45;;;;;;;5.10;1.90;;;;;;;16.47;63.74;100927.94;106244;1268;139877;-69
2022/08/07 00:08:19;;;;;;;5.40;2.30;;;;;;;16.44;63.65;100930.52;106372;1268;108387;-68
2022/08/07 00:10:52;;;;;;;6.00;2.00;;;;;;;16.40;63.47;100930.20;106253;1269;138618;-68
2022/08/07 00:13:29;;;;;;;7.30;1.90;;;;;;;16.33;63.46;100930.30;106378;1271;97797;-68
2022/08/07 00:16:05;;;;;;;4.70;1.90;;;;;;;16.30;63.52;100935.18;106187;1271;139387;-68
2022/08/07 00:18:38;;;;;;;4.40;1.70;;;;;;;16.27;63.46;100938.84;107766;1269;112758;-69
2022/08/07 00:21:11;;;;;;;4.90;2.00;;;;;;;16.24;63.34;100938.27;107778;1270;108839;-69
2022/08/07 00:24:04;;;;;;;5.50;1.70;;;;;;;16.19;63.35;100940.99;107070;1268;108753;-69
2022/08/07 00:26:37;;;;;;;6.40;1.90;;;;;;;16.14;63.47;100937.30;106300;1270;97835;-68
2022/08/07 00:29:29;;;;;;;5.60;1.70;;;;;;;16.07;63.29;100943.41;107646;1270;139979;-68
2022/08/07 00:32:03;;;;;;;7.30;1.70;;;;;;;16.00;63.39;100945.48;107137;1270;112329;-69
2022/08/07 00:34:37;;;;;;;5.60;2.00;;;;;;;15.98;63.39;100945.23;106201;1268;139828;-67
2022/08/07 00:37:09;;;;;;;5.80;2.20;;;;;;;15.93;63.46;100947.33;106309;1270;108868;-68
2022/08/07 00:39:42;;;;;;;7.40;2.10;;;;;;;15.88;63.50;100947.55;106064;1270;139121;-68
2022/08/07 00:42:16;;;;;;;2.70;1.80;;;;;;;15.86;63.53;100948.40;106675;1270;97909;-68
2022/08/07 00:44:48;;;;;;;6.50;1.90;;;;;;;15.82;63.55;100948.02;107822;1268;111736;-68
2022/08/07 00:47:21;;;;;;;5.90;2.20;;;;;;;15.79;63.83;100943.05;107356;1270;138479;-68
2022/08/07 00:50:14;;;;;;;5.60;2.10;;;;;;;15.76;64.00;100946.86;106266;1271;108137;-68
2022/08/07 00:53:06;;;;;;;4.30;2.10;;;;;;;15.75;64.07;100951.14;107580;1270;138716;-68
2022/08/07 00:55:42;;;;;;;5.40;2.20;;;;;;;15.71;64.04;100945.66;106910;1270;97928;-68
2022/08/07 00:58:34;;;;;;;7.40;2.20;;;;;;;15.64;64.06;100948.94;107726;1270;138374;-68
2022/08/07 01:01:09;;;;;;;6.00;2.30;;;;;;;15.59;64.15;100946.15;107093;1270;109090;-68
2022/08/07 01:03:41;;;;;;;5.20;2.20;;;;;;;15.53;64.20;100949.04;106561;1269;139034;-68
2022/08/07 01:06:30;;;;;;;4.30;2.20;;;;;;;15.49;64.44;100945.71;107782;1269;96121;-68
2022/08/07 01:09:03;;;;;;;5.90;2.30;;;;;;;15.46;64.53;100948.45;107886;1267;96802;-69
2022/08/07 01:11:40;;;;;;;4.60;2.20;;;;;;;15.43;64.66;100944.70;107364;1270;138812;-68
2022/08/07 01:14:32;;;;;;;4.70;2.10;;;;;;;15.39;64.71;100948.02;106290;1271;109174;-69
2022/08/07 01:17:08;;;;;;;4.90;2.30;;;;;;;15.36;64.77;100950.08;106150;1268;138572;-68
2022/08/07 01:19:42;;;;;;;6.00;2.50;;;;;;;15.33;64.83;100950.02;106149;1271;98040;-68
2022/08/07 01:22:25;;;;;;;6.80;2.30;;;;;;;15.29;64.86;100947.39;107704;1270;139026;-69
2022/08/07 01:25:02;;;;;;;6.90;2.20;;;;;;;15.25;65.00;100948.08;107789;1268;113146;-69
2022/08/07 01:27:55;;;;;;;4.30;2.60;;;;;;;15.22;65.13;100946.25;107674;1271;138691;-68
2022/08/07 01:30:30;;;;;;;8.00;2.40;;;;;;;15.19;65.11;100948.50;107788;1268;108523;-68
2022/08/07 01:33:02;;;;;;;7.20;2.70;;;;;;;15.17;65.26;100946.65;107782;1270;96111;-68
2022/08/07 01:35:35;;;;;;;5.40;2.30;;;;;;;15.18;65.27;100946.45;106288;1271;138832;-68
2022/08/07 01:38:29;;;;;;;6.70;2.60;;;;;;;15.16;65.40;100950.71;106364;1268;111477;-68
2022/08/07 01:41:13;;;;;;;8.30;2.90;;;;;;;15.15;65.64;100947.05;106315;1270;139402;-68
2022/08/07 01:44:00;;;;;;;7.50;2.80;;;;;;;15.14;65.52;100950.27;106420;1268;108647;-69
2022/08/07 01:46:35;;;;;;;7.00;3.10;;;;;;;15.14;65.75;100952.39;106199;1268;138699;-69
2022/08/07 01:49:12;;;;;;;8.30;3.00;;;;;;;15.12;65.78;100952.11;106393;1268;97785;-69
2022/08/07 01:51:48;;;;;;;8.10;3.70;;;;;;;15.10;65.88;100950.44;106133;1271;138567;-68
2022/08/07 01:54:39;;;;;;;7.10;3.40;;;;;;;15.07;65.85;100950.36;106383;1270;108990;-68
2022/08/07 01:57:21;;;;;;;4.70;3.30;;;;;;;15.05;66.06;100947.45;106255;1270;108847;-68
2022/08/07 20:41:24;;;;;;;8.00;3.20;;;;;;;19.01;46.92;100829.48;102667;1312;636298;-80
2022/08/07 20:44:00;;;;;;;5.50;3.20;;;;;;;19.00;47.10;100828.88;105408;1282;137032;-79
2022/08/07 20:46:35;;;;;;;6.20;3.30;;;;;;;18.99;47.15;100826.61;105312;1284;94407;-79
2022/08/07 20:49:23;;;;;;;6.70;3.60;;;;;;;18.98;47.37;100827.89;105215;1284;136756;-79
2022/08/07 20:52:21;;;;;;;4.90;2.60;;;;;;;18.97;47.31;100829.91;105307;1283;109185;-79
2022/08/07 20:55:02;;;;;;;7.60;2.50;;;;;;;18.96;47.14;100831.25;104517;1282;1248945;-79
2022/08/07 20:57:44;;;;;;;5.90;3.00;;;;;;;18.94;47.08;100826.91;105596;1282;94387;-77
2022/08/07 21:00:43;;;;;;;6.50;2.90;;;;;;;18.94;47.28;100825.17;105636;1281;94425;-82
2022/08/07 21:03:19;;;;;;;4.00;2.90;;;;;;;18.90;47.54;100822.94;105498;1282;108609;-81
2022/08/07 21:06:05;;;;;;;5.50;2.80;;;;;;;18.86;47.51;100821.77;106882;1282;107785;-80
2022/08/07 21:09:03;;;;;;;4.50;3.10;;;;;;;18.83;47.94;100822.83;105602;1281;137082;-83
2022/08/07 21:11:49;;;;;;;6.70;3.50;;;;;;;18.81;47.92;100819.26;106544;1281;94143;-82
2022/08/07 21:14:26;;;;;;;9.30;3.40;;;;;;;18.79;48.15;100821.98;105748;1282;137050;-84
2022/08/07 21:17:10;;;;;;;5.60;3.20;;;;;;;18.75;48.16;100824.84;106523;1279;110065;-82
2022/08/07 21:20:07;;;;;;;5.30;3.10;;;;;;;18.72;48.16;100824.34;106998;1279;137399;-83
2022/08/07 21:22:43;;;;;;;6.70;3.40;;;;;;;18.69;48.03;100823.23;105910;1279;107439;-82
2022/08/07 21:25:32;;;;;;;6.00;3.30;;;;;;;18.70;48.22;100823.18;105841;1280;137455;-80
2022/08/07 21:28:18;;;;;;;7.80;3.60;;;;;;;18.69;48.39;100823.79;106474;1279;95337;-81
2022/08/07 21:31:18;;;;;;;12.50;3.30;;;;;;;18.67;48.58;100827.22;105676;1278;137303;-80
2022/08/07 21:34:15;;;;;;;6.80;3.80;;;;;;;18.67;48.61;100827.95;105783;1281;108981;-80
2022/08/07 21:36:59;;;;;;;8.30;3.90;;;;;;;18.66;48.50;100825.36;106435;1278;138985;-79
2022/08/07 21:39:39;;;;;;;7.60;3.90;;;;;;;18.64;48.69;100830.00;106118;1279;95159;-78
2022/08/07 21:42:39;;;;;;;5.80;3.60;;;;;;;18.64;48.72;100828.64;106948;1279;94739;-77
2022/08/07 21:45:26;;;;;;;6.50;3.80;;;;;;;18.63;48.74;100827.09;105878;1279;109757;-80
2022/08/07 21:48:23;;;;;;;10.80;5.60;;;;;;;18.62;49.29;100833.65;106422;1278;108607;-77
2022/08/07 21:51:10;;;;;;;9.90;6.20;;;;;;;18.60;49.68;100828.67;105723;1279;137376;-80
2022/08/07 21:54:04;;;;;;;11.10;5.60;;;;;;;18.56;50.34;100830.66;107289;1278;95250;-80
2022/08/07 21:56:43;;;;;;;8.20;4.60;;;;;;;18.53;50.28;100826.28;105988;1276;137398;-80
2022/08/07 21:59:34;;;;;;;11.70;5.10;;;;;;;18.48;50.38;100827.40;106048;1274;109715;-81
2022/08/07 22:02:37;;;;;;;8.50;4.90;;;;;;;18.45;50.81;100830.21;105909;1274;137289;-80
2022/08/07 22:05:17;;;;;;;7.30;4.50;;;;;;;18.40;51.03;100830.81;106013;1274;108889;-79
2022/08/07 22:08:08;;;;;;;;;;;;;;;18.34;51.32;100833.09;106082;1274;137114;-79
2022/08/07 22:10:45;;;;;;;6.40;4.20;;;;;;;18.30;51.32;100831.39;106044;1274;95143;-81
2022/08/07 22:13:19;;;;;;;6.60;4.00;;;;;;;18.27;51.11;100830.50;105952;1274;136080;-78
2022/08/07 22:16:08;;;;;;;8.60;4.40;;;;;;;18.25;50.95;100828.88;107128;1274;107039;-78
2022/08/07 22:19:06;;;;;;;8.30;3.60;;;;;;;18.22;51.20;100829.59;107536;1274;137717;-77
2022/08/07 22:21:44;;;;;;;8.30;4.40;;;;;;;18.19;51.44;100829.58;107060;1274;95166;-78
2022/08/07 22:24:43;;;;;;;7.30;4.10;;;;;;;18.15;51.84;100829.95;106809;1274;95037;-79
2022/08/07 22:27:26;;;;;;;7.50;4.20;;;;;;;18.09;52.04;100836.02;107619;1274;109711;-79
2022/08/07 22:30:20;;;;;;;7.10;4.30;;;;;;;18.05;52.20;100838.57;107414;1274;109061;-79
2022/08/07 22:33:04;;;;;;;7.10;3.80;;;;;;;18.01;52.40;100838.07;107531;1274;136887;-82
2022/08/07 22:35:41;;;;;;;6.80;4.10;;;;;;;17.96;52.30;100840.11;107632;1274;93329;-78
2022/08/07 22:38:23;;;;;;;9.50;3.90;;;;;;;17.89;52.15;100836.22;106043;1274;137120;-77
2022/08/07 22:41:03;;;;;;;6.40;3.70;;;;;;;17.85;52.04;100832.45;107284;1275;109839;-78
2022/08/07 22:43:46;;;;;;;7.60;4.20;;;;;;;17.83;51.94;100833.98;106048;1273;138186;-78
2022/08/07 22:46:32;;;;;;;7.90;3.10;;;;;;;17.80;52.16;100835.71;106137;1274;109709;-79
2022/08/07 22:49:42;;;;;;;7.70;3.50;;;;;;;17.74;51.83;100832.66;106151;1274;137357;-78
2022/08/07 22:52:58;;;;;;;4.70;3.10;;;;;;;17.69;52.13;100834.48;106143;1274;95724;-77
2022/08/07 22:55:48;;;;;;;8.40;3.20;;;;;;;17.66;52.11;100839.77;106304;1274;137682;-75
2022/08/07 22:58:34;;;;;;;6.10;2.80;;;;;;;17.61;52.14;100840.52;107683;1273;108765;-75
2022/08/07 23:01:28;;;;;;;6.20;3.10;;;;;;;17.59;51.98;100844.14;107483;1274;138664;-75
2022/08/07 23:04:39;;;;;;;4.10;2.70;;;;;;;17.55;51.80;100848.59;107525;1274;96576;-75
2022/08/07 23:07:52;;;;;;;4.30;2.40;;;;;;;17.49;51.64;100849.38;107381;1274;138118;-79
2022/08/07 23:10:40;;;;;;;7.70;3.10;;;;;;;17.49;51.56;100849.57;107621;1274;109762;-79
2022/08/07 23:13:38;;;;;;;10.00;3.30;;;;;;;17.50;51.47;100850.92;106444;1273;137427;-79
2022/08/07 23:16:42;;;;;;;6.30;3.30;;;;;;;17.49;51.43;100851.86;107626;1274;107717;-78
2022/08/07 23:22:49;;;;;;;5.00;3.50;;;;;;;17.48;51.44;100855.08;106069;1274;95212;-78
2022/08/07 23:25:41;;;;;;;6.00;3.70;;;;;;;17.43;51.92;100856.74;107001;1274;137290;-82
2022/08/07 23:28:44;;;;;;;6.00;3.60;;;;;;;17.40;52.49;100858.43;106144;1274;107494;-80
2022/08/07 23:31:44;;;;;;;5.70;3.70;;;;;;;17.38;52.66;100858.38;105936;1274;137588;-79
2022/08/07 23:34:51;;;;;;;8.90;5.30;;;;;;;17.36;52.92;100862.01;106114;1274;95228;-79
2022/08/07 23:37:46;;;;;;;9.90;5.00;;;;;;;17.35;53.17;100867.13;107540;1274;138530;-78
2022/08/07 23:40:37;;;;;;;8.70;5.00;;;;;;;17.32;53.29;100866.98;107130;1274;109785;-78
2022/08/07 23:43:32;;;;;;;11.90;5.10;;;;;;;17.28;53.35;100869.27;106047;1274;139095;-81
2022/08/07 23:46:25;;;;;;;10.10;4.50;;;;;;;17.25;53.53;100874.19;106093;1274;107830;-77
2022/08/07 23:49:41;;;;;;;6.80;4.40;;;;;;;17.23;53.75;100875.16;106107;1274;137682;-77
2022/08/07 23:52:40;;;;;;;7.50;4.10;;;;;;;17.17;54.02;100871.23;107584;1271;95058;-77
2022/08/07 23:55:38;;;;;;;10.60;3.90;;;;;;;17.09;54.22;100872.16;106276;1271;138537;-77
2022/08/07 23:58:36;;;;;;;7.60;3.80;;;;;;;17.03;54.44;100871.20;106973;1270;108809;-77
